FYGA4: White River At Fayetteville, AR

                                SHEF ID:       FYGA4     White River near Fayetteville, A
STATION TYPE: Stream Gauge

PRECIP STAGE RIV-FLOW WTR-TEMP DIS-OXY PH CONDUCT BAT-LOAD
in ft cfs F mg/l su umho/cm volt
Ccp-Rev Ccp-Rev Ccp-Rev Ccp-Rev Ccp-Rev Ccp-Rev Ccp-Rev Ccp-Rev
(America/Chicago)
11/29 00:00 0.09 2.52 144 51.89 9.55 7.53 146 12.65
11/29 01:00 0.05 2.52 144 51.60 9.63 7.53 143 12.65
11/29 02:00 0.00 2.59 162 51.35 9.63 7.51 142 12.57
11/29 03:00 0.05 2.61 167 51.26 9.68 7.52 137 12.57
11/29 04:00 0.03 2.57 156 51.21 9.74 7.53 136 12.57
11/29 05:00 0.01 2.58 159 51.01 9.71 7.51 138 12.49
11/29 06:00 0.00 2.57 156 50.92 9.75 7.52 135 12.49
11/29 07:00 0.01 2.57 156 50.77 9.73 7.52 137 12.41
11/29 08:00 0.00 2.53 146 50.74 9.75 7.53 140 12.41
11/29 09:00 0.00 2.53 146 50.68 9.80 7.54 142 12.41
11/29 10:00 0.00 2.56 154 50.63 9.84 7.56 143 12.41
11/29 11:00 0.01 2.54 149 50.63 9.95 7.56 143 12.41
11/29 12:00 0.00 2.51 141 50.68 9.98 7.58 149 12.65
11/29 13:00 0.00 2.50 139 50.65 9.96 7.58 155 12.81
11/29 14:00 0.00 2.49 137 50.61 9.97 7.59 156 12.81
11/29 15:00 0.00 2.49 137 50.58 10.00 7.60 157 12.73
11/29 16:00 0.00 2.49 137 50.59 9.95 7.59 157 12.65
11/29 17:00 0.01 2.46 129 50.36 9.96 7.58 156 12.49
11/29 18:00 0.00 2.44 125 50.02 9.93 7.58 157 12.41
11/29 19:00 0.00 2.44 125 49.64 9.97 7.59 157 12.41
11/29 20:00 0.00 2.43 123 49.32 9.98 7.58 156 12.33
11/29 21:00 0.00 2.45 127 49.12 9.95 7.57 155 12.33
11/29 22:00 0.00 2.45 127 48.97 10.02 7.58 153 12.33
11/29 23:00 0.00 2.45 127 48.67 10.07 7.56 151 12.25
Data processed at Sun 30Nov2025 05:10 GMT

NOTICE: If you are parsing this page

Please convert to using our Data API. Starting January 1st, 2026 we will be migrating to: https://water.usace.army.mil with modern pages rendered in JavaScript. You will no longer be able to scrape this page! CWMSDataAPI (CDA)

Timeseries IDs (TSIDs)

TSIDs used from left to right in the data table
FAYE.Precip-Inc.Total.1Hour.1Hour.Ccp-Rev
FAYE.Stage.Inst.1Hour.0.Ccp-Rev
FAYE.Flow.Inst.1Hour.0.Ccp-Rev
FAYE.Temp-Water.Inst.1Hour.0.Ccp-Rev
FAYE.Conc-DO.Inst.1Hour.0.Ccp-Rev
FAYE.pH.Inst.1Hour.0.Ccp-Rev
FAYE.Cond-Water.Inst.1Hour.0.Ccp-Rev
FAYE.Volt-Battery Load.Inst.1Hour.0.Ccp-Rev

                            

All information presented herein is the property of the government of the United States of America and may be revised or deleted at any time without prior notice. Dissemination of this information without the expressed written consent of the Public Affairs Office, Tulsa District U.S. Army Corps of Engineers is strictly prohibited. These data are gathered electronically and, as presented, have NOT undergone any form of quality control. These data are NOT guaranteed to be valid or correct.